Time;durP1;ratioP1;P1;durP2;ratioP2;P2;SDS_P1;SDS_P2;PMS_P1;PMS_P2;Temp;Humidity;BMP_temperature;BMP_pressure;BME280_temperature;BME280_humidity;BME280_pressure;Samples;Min_cycle;Max_cycle;Signal;HPM_P1;HPM_P2
2022/09/24 00:00:34;;;;;;;18.40;10.75;;;15.20;99.90;;;;;;4150451;28;20173;-87
2022/09/24 00:02:35;;;;;;;16.90;11.00;;;15.20;99.90;;;;;;4150310;28;20263;-88
2022/09/24 00:04:36;;;;;;;19.27;11.00;;;15.20;99.90;;;;;;4150404;28;20173;-87
2022/09/24 00:06:43;;;;;;;17.98;10.75;;;15.20;99.90;;;;;;4150402;28;20203;-87
2022/09/24 00:08:45;;;;;;;16.60;10.60;;;15.30;99.90;;;;;;4166475;28;20534;-87
2022/09/24 00:10:47;;;;;;;18.40;10.52;;;15.30;99.90;;;;;;4166574;28;20176;-87
2022/09/24 00:12:48;;;;;;;13.00;9.98;;;15.30;99.90;;;;;;4150363;28;20176;-87
2022/09/24 00:14:49;;;;;;;15.85;10.50;;;15.20;99.90;;;;;;4166675;28;20330;-87
2022/09/24 00:16:49;;;;;;;14.73;10.50;;;15.10;99.90;;;;;;4150135;28;20185;-88
2022/09/24 00:18:51;;;;;;;16.45;10.57;;;15.20;99.90;;;;;;4166503;28;20670;-88
2022/09/24 00:20:51;;;;;;;16.15;9.98;;;15.20;99.90;;;;;;4150275;28;20256;-88
2022/09/24 00:22:52;;;;;;;13.82;10.43;;;15.20;99.90;;;;;;4150166;28;20180;-87
2022/09/24 00:27:12;;;;;;;14.18;9.85;;;15.20;99.90;;;;;;4166473;28;20180;-88
2022/09/24 00:29:23;;;;;;;13.00;9.90;;;15.20;99.90;;;;;;4166332;28;20610;-88
2022/09/24 00:31:24;;;;;;;19.33;10.57;;;15.00;99.90;;;;;;4150225;28;20179;-88
2022/09/24 00:33:27;;;;;;;13.30;9.93;;;15.10;99.90;;;;;;4150027;28;20183;-87
2022/09/24 00:35:30;;;;;;;16.02;10.25;;;15.00;99.90;;;;;;4150108;28;20679;-88
2022/09/24 00:37:31;;;;;;;12.63;9.63;;;14.90;99.90;;;;;;4149918;28;20210;-87
2022/09/24 00:39:31;;;;;;;15.48;10.00;;;15.00;99.90;;;;;;4166133;28;20243;-87
2022/09/24 00:41:36;;;;;;;13.98;9.65;;;15.00;99.90;;;;;;4148754;28;20161;-88
2022/09/24 00:43:37;;;;;;;14.50;9.70;;;14.90;99.90;;;;;;4149846;28;20181;-88
2022/09/24 00:45:38;;;;;;;20.27;9.68;;;14.80;99.90;;;;;;4149758;28;20643;-89
2022/09/24 00:47:41;;;;;;;16.48;9.20;;;14.80;99.90;;;;;;4149715;28;20191;-88
2022/09/24 00:49:42;;;;;;;13.35;9.63;;;14.80;99.90;;;;;;4149753;28;20208;-88
2022/09/24 00:51:45;;;;;;;13.88;9.23;;;14.80;99.90;;;;;;4149801;28;20172;-88
2022/09/24 00:53:50;;;;;;;13.90;9.48;;;14.70;99.90;;;;;;4149566;28;20219;-87
2022/09/24 00:55:55;;;;;;;13.98;9.98;;;14.80;99.90;;;;;;4149569;28;20666;-89
2022/09/24 00:57:59;;;;;;;14.52;9.95;;;14.80;99.90;;;;;;4149470;28;20181;-87
2022/09/24 01:00:00;;;;;;;14.65;9.93;;;14.80;99.90;;;;;;4149409;28;20255;-87
2022/09/24 01:02:02;;;;;;;16.13;9.80;;;14.80;99.90;;;;;;4165781;28;20180;-89
2022/09/24 01:04:04;;;;;;;14.93;9.85;;;14.90;99.90;;;;;;4149253;28;20177;-88
2022/09/24 01:06:08;;;;;;;12.35;9.18;;;14.90;99.90;;;;;;4149337;28;20177;-89
2022/09/24 01:08:14;;;;;;;16.50;9.85;;;14.80;99.90;;;;;;4165645;28;20588;-87
2022/09/24 01:10:46;;;;;;;15.23;9.63;;;14.80;99.90;;;;;;4165663;28;20679;-87
2022/09/24 01:12:45;;;;;;;13.27;9.27;;;14.80;99.90;;;;;;4165517;28;20186;-89
2022/09/24 01:15:05;;;;;;;18.55;9.82;;;14.80;99.90;;;;;;4149217;28;20180;-89
2022/09/24 01:17:11;;;;;;;14.82;10.55;;;14.70;99.90;;;;;;4149139;28;20572;-89
2022/09/24 01:19:42;;;;;;;17.70;11.63;;;14.70;99.90;;;;;;4149817;28;20224;-89
2022/09/24 01:21:52;;;;;;;17.00;11.50;;;14.80;99.90;;;;;;4168568;28;20583;-90
2022/09/24 01:24:05;;;;;;;17.33;10.90;;;14.70;99.90;;;;;;4149647;28;20693;-88
2022/09/24 01:26:18;;;;;;;19.88;11.55;;;14.80;99.90;;;;;;4166032;28;20172;-88
2022/09/24 01:28:27;;;;;;;19.63;12.75;;;14.80;99.90;;;;;;4149215;28;20189;-88
2022/09/24 01:30:31;;;;;;;22.95;13.13;;;14.80;99.90;;;;;;4149194;28;20200;-87
2022/09/24 01:32:51;;;;;;;23.95;14.02;;;14.80;99.90;;;;;;4165624;28;20184;-88
2022/09/24 01:34:57;;;;;;;21.65;13.27;;;14.80;99.90;;;;;;4149129;28;20169;-87
2022/09/24 01:36:59;;;;;;;22.30;14.48;;;14.80;99.90;;;;;;4165262;28;20659;-88
2022/09/24 01:39:02;;;;;;;22.05;14.20;;;14.90;99.90;;;;;;4165099;28;20630;-88
2022/09/24 01:41:04;;;;;;;21.33;14.57;;;14.80;99.90;;;;;;4148945;28;20211;-88
2022/09/24 01:43:09;;;;;;;26.33;16.35;;;14.90;99.90;;;;;;4148975;28;20192;-90
2022/09/24 01:45:10;;;;;;;21.58;15.55;;;15.00;99.90;;;;;;4148759;28;20173;-89
2022/09/24 01:47:38;;;;;;;22.48;15.43;;;14.90;99.90;;;;;;4165112;28;20276;-88
2022/09/24 01:49:39;;;;;;;26.45;14.40;;;15.00;99.90;;;;;;4165068;28;20190;-90
2022/09/24 01:51:57;;;;;;;26.15;14.52;;;15.00;99.90;;;;;;4165138;28;20180;-89
2022/09/24 01:54:03;;;;;;;24.55;15.57;;;15.00;99.90;;;;;;4148563;28;20632;-89
2022/09/24 01:56:17;;;;;;;23.27;15.77;;;14.90;99.90;;;;;;4148854;28;20665;-88
2022/09/24 01:58:26;;;;;;;23.33;15.18;;;15.00;99.90;;;;;;4164820;28;20345;-89
2022/09/24 02:00:27;;;;;;;23.63;15.88;;;15.00;99.90;;;;;;4165016;28;20240;-90
2022/09/24 02:02:37;;;;;;;24.55;16.67;;;14.90;99.90;;;;;;4148681;28;20645;-89
2022/09/24 02:04:43;;;;;;;26.30;15.90;;;15.00;99.90;;;;;;4164706;28;20214;-89
2022/09/24 02:06:50;;;;;;;25.40;16.58;;;15.00;99.90;;;;;;4165274;28;20188;-89
2022/09/24 02:08:50;;;;;;;25.85;16.58;;;14.90;99.90;;;;;;4164908;28;20227;-89
2022/09/24 02:11:03;;;;;;;26.83;17.20;;;14.90;99.90;;;;;;4164768;28;20589;-89
2022/09/24 02:13:11;;;;;;;23.52;16.40;;;15.00;99.90;;;;;;4148896;28;20238;-88
2022/09/24 02:15:20;;;;;;;22.67;15.45;;;15.00;99.90;;;;;;4148677;28;20176;-88
2022/09/24 02:17:26;;;;;;;20.88;14.82;;;14.90;99.90;;;;;;4148618;28;20176;-89
2022/09/24 02:19:29;;;;;;;22.23;14.88;;;14.90;99.90;;;;;;4148520;28;20255;-89
2022/09/24 02:21:33;;;;;;;22.75;15.02;;;14.90;99.90;;;;;;4148502;28;20533;-89
2022/09/24 02:23:37;;;;;;;21.05;14.45;;;15.00;99.90;;;;;;4148568;28;20177;-89
2022/09/24 02:25:49;;;;;;;21.08;14.88;;;14.90;99.90;;;;;;4148462;28;20179;-89
2022/09/24 02:27:50;;;;;;;23.95;14.93;;;14.90;99.90;;;;;;4148389;28;20196;-89
2022/09/24 02:29:51;;;;;;;21.92;14.75;;;14.90;99.90;;;;;;4164561;28;20196;-90
2022/09/24 02:31:54;;;;;;;21.15;15.15;;;14.90;99.90;;;;;;4148466;28;20652;-90
2022/09/24 02:36:23;;;;;;;21.20;14.60;;;14.90;99.90;;;;;;4181309;28;20517;-89
2022/09/24 02:38:24;;;;;;;22.00;14.32;;;14.80;99.90;;;;;;4148395;28;20215;-89
2022/09/24 02:40:25;;;;;;;25.27;14.55;;;14.80;99.90;;;;;;4180830;28;20180;-88
2022/09/24 02:42:26;;;;;;;24.13;14.80;;;14.80;99.90;;;;;;4148492;28;20196;-88
2022/09/24 02:44:29;;;;;;;22.27;14.30;;;14.90;99.90;;;;;;4148284;28;20227;-88
2022/09/24 02:46:30;;;;;;;23.33;14.32;;;14.90;99.90;;;;;;4164738;28;20254;-87
2022/09/24 02:48:31;;;;;;;24.75;15.13;;;15.00;99.90;;;;;;4148076;28;20657;-89
2022/09/24 02:50:31;;;;;;;21.30;14.75;;;15.00;99.90;;;;;;4148190;28;20573;-88
2022/09/24 02:52:32;;;;;;;25.88;14.93;;;15.00;99.90;;;;;;4164610;28;20574;-88
2022/09/24 02:54:33;;;;;;;23.20;15.13;;;14.90;99.90;;;;;;4147888;28;20160;-89
2022/09/24 02:56:34;;;;;;;21.85;14.95;;;14.80;99.90;;;;;;4148274;28;20211;-87
2022/09/24 02:58:36;;;;;;;27.17;14.77;;;14.80;99.90;;;;;;4147964;28;20216;-88
2022/09/24 03:00:36;;;;;;;23.55;15.43;;;14.80;99.90;;;;;;4148224;28;20177;-89
2022/09/24 03:02:37;;;;;;;25.85;14.63;;;14.70;99.90;;;;;;4164294;28;20274;-89
2022/09/24 03:04:38;;;;;;;20.88;14.48;;;14.70;99.90;;;;;;4148295;28;20165;-88
2022/09/24 03:06:38;;;;;;;20.33;14.48;;;14.70;99.90;;;;;;4168594;28;20537;-89
2022/09/24 03:08:43;;;;;;;22.80;15.77;;;14.80;99.90;;;;;;4151094;28;20181;-87
2022/09/24 03:10:44;;;;;;;22.00;16.17;;;14.80;99.90;;;;;;4150985;28;20169;-88
2022/09/24 03:12:44;;;;;;;21.45;14.73;;;14.70;99.90;;;;;;4167475;28;20219;-88
2022/09/24 03:14:45;;;;;;;23.35;14.93;;;14.70;99.90;;;;;;4151191;28;20212;-87
2022/09/24 03:16:46;;;;;;;25.13;16.50;;;14.80;99.90;;;;;;4151933;28;20199;-87
2022/09/24 03:18:47;;;;;;;26.55;16.73;;;14.70;99.90;;;;;;4150925;28;20581;-88
2022/09/24 03:20:58;;;;;;;22.58;15.80;;;14.80;99.90;;;;;;4151279;28;20219;-89
2022/09/24 03:22:58;;;;;;;21.65;16.15;;;14.90;99.90;;;;;;4151041;28;20180;-88
2022/09/24 03:25:02;;;;;;;25.63;15.85;;;14.80;99.90;;;;;;4167346;28;20176;-89
2022/09/24 03:27:02;;;;;;;19.15;14.75;;;14.80;99.90;;;;;;4151033;28;20260;-88
2022/09/24 03:29:03;;;;;;;23.77;16.02;;;14.80;99.90;;;;;;4167117;28;20196;-87
2022/09/24 03:31:04;;;;;;;25.50;15.88;;;14.80;99.90;;;;;;4167229;28;20238;-90
2022/09/24 03:33:05;;;;;;;21.83;15.30;;;14.70;99.90;;;;;;4150986;28;20235;-89
2022/09/24 03:35:06;;;;;;;24.65;15.30;;;14.80;99.90;;;;;;4167213;28;20172;-88
2022/09/24 03:37:07;;;;;;;21.60;15.30;;;14.80;99.90;;;;;;4151005;28;20184;-88
2022/09/24 03:39:08;;;;;;;20.33;14.32;;;14.70;99.90;;;;;;4167001;28;20718;-89
2022/09/24 03:41:10;;;;;;;23.27;14.55;;;14.80;99.90;;;;;;4150826;28;20165;-89
2022/09/24 03:43:11;;;;;;;20.08;14.07;;;14.70;99.90;;;;;;4167315;28;20180;-90
2022/09/24 03:45:12;;;;;;;23.13;14.15;;;14.70;99.90;;;;;;4166966;28;20234;-89
2022/09/24 03:47:12;;;;;;;21.70;13.75;;;14.70;99.90;;;;;;4168151;28;20638;-89
2022/09/24 03:49:13;;;;;;;23.60;14.73;;;14.70;99.90;;;;;;4150651;28;20224;-88
2022/09/24 03:51:17;;;;;;;22.30;14.43;;;14.70;99.90;;;;;;4166920;28;20168;-88
2022/09/24 03:53:19;;;;;;;21.55;13.65;;;14.70;99.90;;;;;;4150555;28;20177;-89
2022/09/24 03:55:20;;;;;;;22.55;15.15;;;14.60;99.90;;;;;;4166650;28;20228;-88
2022/09/24 03:57:21;;;;;;;22.27;14.65;;;14.50;99.90;;;;;;4150515;28;20176;-89
2022/09/24 03:59:21;;;;;;;23.23;15.38;;;14.60;99.90;;;;;;4150407;28;20224;-87
2022/09/24 04:01:22;;;;;;;20.02;14.15;;;14.60;99.90;;;;;;4150500;28;20185;-88
2022/09/24 04:03:23;;;;;;;22.15;14.52;;;14.50;99.90;;;;;;4150346;28;20295;-88
2022/09/24 04:05:24;;;;;;;27.13;16.05;;;14.50;99.90;;;;;;4166621;28;20183;-88
2022/09/24 04:07:24;;;;;;;27.10;15.75;;;14.40;99.90;;;;;;4150430;28;20181;-89
2022/09/24 04:09:26;;;;;;;23.80;16.35;;;14.40;99.90;;;;;;4166760;28;20184;-88
2022/09/24 04:11:26;;;;;;;26.52;16.15;;;14.50;99.90;;;;;;4169591;28;20172;-90
2022/09/24 04:13:27;;;;;;;21.52;15.63;;;14.50;99.90;;;;;;4151272;28;20176;-89
2022/09/24 04:15:28;;;;;;;22.27;15.88;;;14.50;99.90;;;;;;4150174;28;20177;-87
2022/09/24 04:17:31;;;;;;;22.55;16.45;;;14.60;99.90;;;;;;4166589;28;20194;-87
2022/09/24 04:19:32;;;;;;;23.33;15.82;;;14.60;99.90;;;;;;4166322;28;20691;-89
2022/09/24 04:21:33;;;;;;;26.55;17.05;;;14.60;99.90;;;;;;4150132;28;20189;-89
2022/09/24 04:23:34;;;;;;;25.23;15.88;;;14.60;99.90;;;;;;4166390;28;20659;-87
2022/09/24 04:25:35;;;;;;;25.45;16.45;;;14.60;99.90;;;;;;4149899;28;20180;-87
2022/09/24 04:27:35;;;;;;;23.35;15.90;;;14.50;99.90;;;;;;4150209;28;20648;-86
2022/09/24 04:29:36;;;;;;;19.67;15.35;;;14.60;99.90;;;;;;4149918;28;20208;-89
2022/09/24 04:31:38;;;;;;;28.17;14.90;;;14.60;99.90;;;;;;4150054;28;20192;-87
2022/09/24 04:33:39;;;;;;;27.17;16.75;;;14.60;99.90;;;;;;4150041;28;20203;-88
2022/09/24 04:35:40;;;;;;;21.88;16.08;;;14.60;99.90;;;;;;4166360;28;20176;-89
2022/09/24 04:37:41;;;;;;;23.60;15.98;;;14.60;99.90;;;;;;4149801;28;20180;-88
2022/09/24 04:39:42;;;;;;;23.55;16.05;;;14.60;99.90;;;;;;4149871;28;20653;-89
2022/09/24 04:41:43;;;;;;;23.33;15.90;;;14.60;99.90;;;;;;4150013;28;20220;-89
2022/09/24 04:43:46;;;;;;;21.48;15.15;;;14.60;99.90;;;;;;4166346;28;20191;-89
2022/09/24 04:45:47;;;;;;;21.80;14.88;;;14.60;99.90;;;;;;4149709;28;20169;-90
2022/09/24 04:47:56;;;;;;;24.02;16.17;;;14.70;99.90;;;;;;4149474;28;20633;-88
2022/09/24 04:49:58;;;;;;;23.20;15.63;;;14.70;99.90;;;;;;4149702;28;20203;-89
2022/09/24 04:51:59;;;;;;;21.48;15.32;;;14.70;99.90;;;;;;4166081;28;20250;-89
2022/09/24 04:54:03;;;;;;;23.38;15.65;;;14.60;99.90;;;;;;4149953;28;20169;-89
2022/09/24 04:56:05;;;;;;;22.27;15.07;;;14.70;99.90;;;;;;4166187;28;20172;-89
2022/09/24 04:58:05;;;;;;;20.02;14.63;;;14.50;99.90;;;;;;4149513;28;20173;-89
2022/09/24 05:00:13;;;;;;;23.48;15.90;;;14.50;99.90;;;;;;4149746;28;20208;-88
2022/09/24 05:02:14;;;;;;;22.63;15.05;;;14.50;99.90;;;;;;4149495;28;20173;-89
2022/09/24 05:04:15;;;;;;;25.58;15.27;;;14.50;99.90;;;;;;4149465;28;20244;-89
2022/09/24 05:06:16;;;;;;;24.42;15.48;;;14.50;99.90;;;;;;4149498;28;20216;-88
2022/09/24 05:08:17;;;;;;;26.02;16.85;;;14.50;99.90;;;;;;4149180;28;20165;-88
2022/09/24 05:10:18;;;;;;;25.15;16.10;;;14.60;99.90;;;;;;4165817;28;20267;-88
2022/09/24 05:12:20;;;;;;;23.40;15.95;;;14.70;99.90;;;;;;4149109;28;20188;-89
2022/09/24 05:14:20;;;;;;;22.92;16.48;;;14.70;99.90;;;;;;4148513;28;20171;-88
2022/09/24 05:16:21;;;;;;;24.80;16.75;;;14.70;99.90;;;;;;4165177;28;20176;-89
2022/09/24 05:18:22;;;;;;;26.35;16.20;;;14.70;99.90;;;;;;4148529;28;20222;-88
2022/09/24 05:20:22;;;;;;;25.88;16.98;;;14.70;99.90;;;;;;4164879;28;20199;-88
2022/09/24 05:22:26;;;;;;;26.60;16.83;;;14.70;99.90;;;;;;4165173;28;20179;-88
2022/09/24 05:24:26;;;;;;;25.15;16.70;;;14.70;99.90;;;;;;4148570;28;20177;-87
2022/09/24 05:28:46;;;;;;;27.20;17.13;;;14.70;99.90;;;;;;4164462;28;20200;-87
2022/09/24 05:30:47;;;;;;;25.90;16.67;;;14.70;99.90;;;;;;4148547;28;20604;-89
2022/09/24 05:32:50;;;;;;;24.83;16.73;;;14.70;99.90;;;;;;4148301;28;20172;-88
2022/09/24 05:34:52;;;;;;;25.63;16.63;;;14.80;99.90;;;;;;4148596;28;20172;-89
2022/09/24 05:36:53;;;;;;;24.88;16.45;;;14.70;99.90;;;;;;4164758;28;20175;-89
2022/09/24 05:38:54;;;;;;;28.23;16.42;;;14.70;99.90;;;;;;4147990;28;20229;-88
2022/09/24 05:40:55;;;;;;;25.52;16.52;;;14.60;99.90;;;;;;4164904;28;20184;-87
2022/09/24 05:43:00;;;;;;;34.72;17.17;;;14.70;99.90;;;;;;4148458;28;20679;-88
2022/09/24 05:45:01;;;;;;;25.13;16.20;;;14.70;99.90;;;;;;4148710;28;20291;-87
2022/09/24 05:47:02;;;;;;;32.05;17.67;;;14.70;99.90;;;;;;4164660;28;20175;-88
2022/09/24 05:49:03;;;;;;;24.58;16.80;;;14.80;99.90;;;;;;4147787;28;20201;-88
2022/09/24 05:51:04;;;;;;;25.70;18.27;;;14.80;99.90;;;;;;4148684;28;20188;-88
2022/09/24 05:53:05;;;;;;;29.25;15.63;;;14.70;99.90;;;;;;4148328;28;20187;-87
2022/09/24 05:55:08;;;;;;;27.35;16.80;;;14.80;99.90;;;;;;4165086;28;20225;-88
2022/09/24 05:57:08;;;;;;;27.92;15.68;;;14.70;99.90;;;;;;4148298;28;20260;-89
2022/09/24 05:59:09;;;;;;;29.27;17.55;;;14.70;99.90;;;;;;4164384;28;20304;-89
2022/09/24 06:01:10;;;;;;;27.23;16.75;;;14.70;99.90;;;;;;4147810;28;20173;-87
2022/09/24 06:03:13;;;;;;;29.10;17.08;;;14.70;99.90;;;;;;4164306;28;20232;-89
2022/09/24 06:05:14;;;;;;;27.88;17.60;;;14.70;99.90;;;;;;4148179;28;20195;-89
2022/09/24 06:07:14;;;;;;;25.85;17.02;;;14.70;99.90;;;;;;4148014;28;20180;-89
2022/09/24 06:09:15;;;;;;;28.95;16.85;;;14.70;99.90;;;;;;4148141;28;20204;-89
2022/09/24 06:11:16;;;;;;;25.52;16.20;;;14.70;99.90;;;;;;4164268;28;20172;-88
2022/09/24 06:13:18;;;;;;;22.55;15.85;;;14.70;99.90;;;;;;4164285;28;20176;-87
2022/09/24 06:15:22;;;;;;;23.48;15.77;;;14.70;99.90;;;;;;4148076;28;20267;-88
2022/09/24 06:17:24;;;;;;;27.48;17.58;;;14.70;99.90;;;;;;4147864;28;20180;-87
2022/09/24 06:19:25;;;;;;;24.40;16.38;;;14.70;99.90;;;;;;4163974;28;20298;-88
2022/09/24 06:21:26;;;;;;;27.73;17.23;;;14.80;99.90;;;;;;4148369;28;20199;-87
2022/09/24 06:23:26;;;;;;;22.67;15.82;;;14.80;99.90;;;;;;4147920;28;20173;-89
2022/09/24 06:25:28;;;;;;;26.65;16.45;;;14.80;99.90;;;;;;4164013;28;20172;-86
2022/09/24 06:27:29;;;;;;;27.55;17.30;;;14.80;99.90;;;;;;4164368;28;20172;-89
2022/09/24 06:29:30;;;;;;;23.73;16.58;;;14.80;99.90;;;;;;4147960;28;20201;-89
2022/09/24 06:31:31;;;;;;;25.40;16.52;;;14.70;99.90;;;;;;4164148;28;20169;-89
2022/09/24 06:33:31;;;;;;;28.25;16.45;;;14.80;99.90;;;;;;4148184;28;20680;-87
2022/09/24 06:35:36;;;;;;;25.35;17.08;;;14.80;99.90;;;;;;4164413;28;20676;-89
2022/09/24 06:37:36;;;;;;;27.00;16.40;;;14.80;99.90;;;;;;4163986;28;20249;-88
2022/09/24 06:39:37;;;;;;;27.25;16.38;;;14.80;99.90;;;;;;4164742;28;20220;-89
2022/09/24 06:41:38;;;;;;;24.38;16.45;;;14.90;99.90;;;;;;4151219;28;20621;-90
2022/09/24 06:43:38;;;;;;;27.45;16.33;;;14.90;99.90;;;;;;4167796;28;20544;-88
2022/09/24 06:45:41;;;;;;;28.48;15.90;;;14.90;99.90;;;;;;4151627;28;20719;-87
2022/09/24 06:47:42;;;;;;;29.35;16.98;;;14.90;99.90;;;;;;4151255;28;20172;-86
2022/09/24 06:49:43;;;;;;;28.08;16.95;;;15.00;99.90;;;;;;4167188;28;20785;-89
2022/09/24 06:51:44;;;;;;;25.70;16.50;;;14.90;99.90;;;;;;4167666;28;20179;-89
2022/09/24 06:53:45;;;;;;;24.15;16.20;;;14.90;99.90;;;;;;4151320;28;20184;-86
2022/09/24 06:55:46;;;;;;;26.00;17.05;;;15.00;99.90;;;;;;4167335;28;20198;-89
2022/09/24 06:57:46;;;;;;;24.45;16.70;;;15.00;99.90;;;;;;4151295;28;20172;-89
2022/09/24 06:59:47;;;;;;;24.13;16.08;;;15.10;99.90;;;;;;4167857;28;20258;-87
2022/09/24 07:01:48;;;;;;;26.02;16.48;;;15.10;99.90;;;;;;4152354;28;20176;-90
2022/09/24 07:03:48;;;;;;;27.65;17.20;;;15.20;99.90;;;;;;4168835;28;20180;-88
2022/09/24 07:05:49;;;;;;;26.17;16.88;;;15.30;99.90;;;;;;4150613;28;20276;-89
2022/09/24 07:07:50;;;;;;;25.35;16.88;;;15.30;99.90;;;;;;4151136;28;20168;-88
2022/09/24 07:09:51;;;;;;;27.10;16.55;;;15.20;99.90;;;;;;4150580;28;20216;-87
2022/09/24 07:11:51;;;;;;;24.30;16.02;;;15.30;99.90;;;;;;4150723;28;20177;-88
2022/09/24 07:13:52;;;;;;;26.73;16.45;;;15.20;99.90;;;;;;4150309;28;20186;-86
2022/09/24 07:15:53;;;;;;;24.13;15.88;;;15.30;99.90;;;;;;4150344;28;20173;-87
2022/09/24 07:17:55;;;;;;;27.70;18.90;;;15.30;99.90;;;;;;4167356;28;20678;-86
2022/09/24 07:19:55;;;;;;;24.60;16.20;;;15.30;99.90;;;;;;4150562;28;20219;-88
2022/09/24 07:21:56;;;;;;;32.90;20.60;;;15.50;99.90;;;;;;4166971;28;20168;-87
2022/09/24 07:23:57;;;;;;;37.80;26.15;;;15.60;99.90;;;;;;4150639;28;20173;-88
2022/09/24 07:25:58;;;;;;;25.88;17.33;;;15.60;99.90;;;;;;4167003;28;20183;-88
2022/09/24 07:28:07;;;;;;;25.02;15.82;;;15.60;99.90;;;;;;4150510;28;20248;-87
2022/09/24 07:30:08;;;;;;;28.17;18.67;;;15.80;99.90;;;;;;4150393;28;20199;-90
2022/09/24 07:32:09;;;;;;;26.65;15.63;;;15.80;99.90;;;;;;4150113;28;20181;-89
2022/09/24 07:34:10;;;;;;;25.88;16.67;;;15.80;99.90;;;;;;4150247;28;20199;-89
2022/09/24 07:36:10;;;;;;;21.05;15.15;;;15.80;99.90;;;;;;4150426;28;20173;-87
2022/09/24 07:38:11;;;;;;;26.88;17.95;;;15.90;99.90;;;;;;4166827;28;20172;-87
2022/09/24 07:40:12;;;;;;;22.60;15.05;;;15.90;99.90;;;;;;4150009;28;20205;-89
2022/09/24 07:42:12;;;;;;;26.30;14.90;;;15.70;99.90;;;;;;4150183;28;20177;-87
2022/09/24 07:44:14;;;;;;;22.67;14.70;;;15.60;99.90;;;;;;4166732;28;20336;-88
2022/09/24 07:46:14;;;;;;;20.92;14.00;;;15.60;99.90;;;;;;4150205;28;20181;-87
2022/09/24 07:48:15;;;;;;;22.98;15.30;;;15.40;99.90;;;;;;4166235;28;20245;-89
2022/09/24 07:50:17;;;;;;;21.80;14.30;;;15.40;99.90;;;;;;4149424;28;20204;-88
2022/09/24 07:52:17;;;;;;;26.13;15.30;;;15.40;99.90;;;;;;4149795;28;20195;-90
2022/09/24 07:54:18;;;;;;;22.92;15.30;;;15.30;99.90;;;;;;4149891;28;20181;-88
2022/09/24 07:56:19;;;;;;;28.05;15.48;;;15.20;99.90;;;;;;4149829;28;20235;-88
2022/09/24 07:58:20;;;;;;;23.08;15.50;;;15.20;99.90;;;;;;4149949;28;20165;-88
2022/09/24 08:00:23;;;;;;;22.17;15.00;;;15.20;99.90;;;;;;4166048;28;20172;-87
2022/09/24 08:02:24;;;;;;;24.10;15.02;;;15.10;99.90;;;;;;4166352;28;20157;-87
2022/09/24 08:04:25;;;;;;;27.83;14.27;;;15.10;99.90;;;;;;4149551;28;20264;-87
2022/09/24 08:06:26;;;;;;;24.20;14.65;;;15.00;99.90;;;;;;4149692;28;20558;-87
2022/09/24 08:08:26;;;;;;;26.17;15.07;;;15.00;99.90;;;;;;4149473;28;20168;-88
2022/09/24 08:10:27;;;;;;;24.70;15.63;;;15.00;99.90;;;;;;4149666;28;20181;-89
2022/09/24 08:12:28;;;;;;;25.70;14.85;;;14.90;99.90;;;;;;4149654;28;20161;-87
2022/09/24 08:14:29;;;;;;;22.05;14.55;;;15.10;99.90;;;;;;4166468;28;20179;-88
2022/09/24 08:16:30;;;;;;;26.83;14.77;;;15.00;99.90;;;;;;4149756;28;20177;-89
2022/09/24 08:18:31;;;;;;;24.05;13.88;;;15.10;99.90;;;;;;4165893;28;20215;-89
2022/09/24 08:20:33;;;;;;;33.75;14.70;;;15.10;99.90;;;;;;4165863;28;20215;-89
2022/09/24 08:22:34;;;;;;;25.40;14.23;;;15.00;99.90;;;;;;4149867;28;20169;-89
2022/09/24 08:24:35;;;;;;;22.00;14.43;;;15.00;99.90;;;;;;4149171;28;20548;-87
2022/09/24 08:26:36;;;;;;;20.77;13.95;;;15.00;99.90;;;;;;4149463;28;20176;-89
2022/09/24 08:28:37;;;;;;;24.58;13.02;;;15.10;99.90;;;;;;4182514;28;20238;-88
2022/09/24 08:30:39;;;;;;;24.08;13.75;;;14.90;99.90;;;;;;4166481;28;20176;-89
2022/09/24 08:32:44;;;;;;;22.38;14.23;;;14.90;99.90;;;;;;4149541;28;20268;-89
2022/09/24 08:34:45;;;;;;;21.15;13.90;;;14.90;99.90;;;;;;4165997;28;20660;-86
2022/09/24 08:36:46;;;;;;;23.40;13.93;;;14.70;99.90;;;;;;4149313;28;20251;-89
2022/09/24 08:38:46;;;;;;;22.02;14.27;;;14.70;99.90;;;;;;4148779;28;20220;-88
2022/09/24 08:41:05;;;;;;;21.80;13.50;;;14.70;99.90;;;;;;4181760;28;20202;-89
2022/09/24 08:43:14;;;;;;;23.30;14.43;;;14.70;99.90;;;;;;4149344;28;20208;-86
2022/09/24 08:47:44;;;;;;;22.17;13.80;;;14.70;99.90;;;;;;4165740;28;20188;-89
2022/09/24 08:49:52;;;;;;;24.08;14.07;;;14.70;99.90;;;;;;4148946;28;20243;-89
2022/09/24 08:52:15;;;;;;;23.85;14.05;;;14.70;99.90;;;;;;4149291;28;20219;-89
2022/09/24 08:54:17;;;;;;;24.10;14.13;;;14.80;99.90;;;;;;4182125;28;20659;-86
2022/09/24 08:56:23;;;;;;;21.05;13.95;;;14.80;99.90;;;;;;4165728;28;20227;-86
2022/09/24 08:58:33;;;;;;;23.10;14.80;;;14.90;99.90;;;;;;4165448;28;20211;-87
2022/09/24 09:00:40;;;;;;;22.90;14.38;;;14.90;99.90;;;;;;4165137;28;20629;-90
2022/09/24 09:02:56;;;;;;;21.08;14.60;;;14.90;99.90;;;;;;4148183;28;20181;-89
2022/09/24 09:04:56;;;;;;;24.42;14.57;;;15.00;99.90;;;;;;4165419;28;20179;-89
2022/09/24 09:07:11;;;;;;;21.50;14.50;;;15.00;99.90;;;;;;4165406;28;20176;-88
2022/09/24 09:09:24;;;;;;;21.02;14.15;;;15.10;99.90;;;;;;4148824;28;20288;-90
2022/09/24 09:11:30;;;;;;;21.42;13.80;;;15.20;99.90;;;;;;4148903;28;20207;-86
2022/09/24 09:13:37;;;;;;;21.75;14.05;;;15.20;99.90;;;;;;4149082;28;20259;-88
2022/09/24 09:15:42;;;;;;;22.35;13.55;;;15.20;99.90;;;;;;4165165;28;20179;-87
2022/09/24 09:18:09;;;;;;;23.48;14.40;;;15.40;99.90;;;;;;4164785;28;20544;-90
2022/09/24 09:20:42;;;;;;;25.15;13.65;;;15.40;99.90;;;;;;4149154;28;20212;-87
2022/09/24 09:22:49;;;;;;;23.15;13.55;;;15.40;99.90;;;;;;4148682;28;20239;-89
2022/09/24 09:24:52;;;;;;;22.20;14.25;;;15.50;99.90;;;;;;4149054;28;20566;-91
2022/09/24 09:26:54;;;;;;;19.92;13.77;;;15.50;99.90;;;;;;4165369;28;20185;-87
2022/09/24 09:29:01;;;;;;;20.10;13.68;;;15.60;99.90;;;;;;4148602;28;20197;-89
2022/09/24 09:31:22;;;;;;;20.63;14.05;;;15.70;99.90;;;;;;4164662;28;20176;-87
2022/09/24 09:33:32;;;;;;;20.52;13.65;;;15.70;99.90;;;;;;4164568;28;20172;-87
2022/09/24 09:35:44;;;;;;;19.13;13.18;;;15.70;99.90;;;;;;4180741;28;20179;-87
2022/09/24 09:37:59;;;;;;;23.95;14.88;;;15.70;99.90;;;;;;4165368;28;20262;-87
2022/09/24 09:40:37;;;;;;;21.20;13.57;;;15.90;99.90;;;;;;4165302;28;20220;-87
2022/09/24 09:42:41;;;;;;;31.30;13.85;;;15.90;99.90;;;;;;4149081;28;20196;-89
2022/09/24 09:44:44;;;;;;;21.77;13.23;;;16.10;99.90;;;;;;4148758;28;20279;-90
2022/09/24 09:47:06;;;;;;;26.55;14.85;;;16.30;99.90;;;;;;4166310;28;20621;-89
2022/09/24 09:49:09;;;;;;;23.75;13.85;;;16.20;99.90;;;;;;4166346;28;20195;-86
2022/09/24 09:51:20;;;;;;;25.40;14.40;;;16.10;99.90;;;;;;4168866;28;20231;-87
2022/09/24 09:53:26;;;;;;;24.42;15.07;;;16.20;99.90;;;;;;4166929;28;20261;-86
2022/09/24 09:55:34;;;;;;;22.85;14.32;;;16.20;99.90;;;;;;4165054;28;20262;-88
2022/09/24 09:57:35;;;;;;;30.25;15.45;;;16.30;99.90;;;;;;4149009;28;20201;-89
2022/09/24 09:59:37;;;;;;;28.73;17.63;;;16.40;99.90;;;;;;4164950;28;20261;-91
2022/09/24 10:01:42;;;;;;;28.92;17.48;;;16.40;99.90;;;;;;4148899;28;20161;-91
2022/09/24 10:03:46;;;;;;;37.28;19.73;;;16.30;99.90;;;;;;4165150;28;20222;-93
2022/09/24 10:06:04;;;;;;;74.70;28.45;;;16.20;99.90;;;;;;4148861;28;20202;-92
2022/09/24 10:08:08;;;;;;;121.47;41.58;;;16.20;99.90;;;;;;4165246;28;20187;-90
2022/09/24 10:10:18;;;;;;;174.02;50.67;;;16.10;99.90;;;;;;4164867;28;20564;-87
2022/09/24 10:12:23;;;;;;;36.03;17.70;;;16.10;99.90;;;;;;4148671;28;20176;-91
2022/09/24 10:14:23;;;;;;;29.25;16.92;;;15.80;99.90;;;;;;4164894;28;20183;-92
2022/09/24 10:16:24;;;;;;;21.98;14.20;;;15.80;99.90;;;;;;4164948;28;20188;-92
2022/09/24 10:18:40;;;;;;;48.47;20.17;;;15.80;99.90;;;;;;4164861;28;20180;-92
2022/09/24 10:20:47;;;;;;;35.92;20.60;;;15.70;99.90;;;;;;4148726;28;20244;-91
2022/09/24 10:23:17;;;;;;;22.63;15.63;;;15.80;99.90;;;;;;4148685;28;20193;-91
2022/09/24 10:25:25;;;;;;;19.55;13.50;;;15.80;99.90;;;;;;4181212;28;20205;-91
2022/09/24 10:27:36;;;;;;;20.08;13.90;;;15.90;99.90;;;;;;4181629;28;20179;-87
2022/09/24 10:31:57;;;;;;;21.20;12.30;;;15.90;99.90;;;;;;4164701;28;20234;-87
2022/09/24 10:34:00;;;;;;;21.95;12.90;;;16.00;99.90;;;;;;4148371;28;20692;-88
2022/09/24 10:36:17;;;;;;;17.67;12.68;;;16.00;99.90;;;;;;4181390;28;20168;-90
2022/09/24 10:38:22;;;;;;;18.55;12.38;;;16.00;99.90;;;;;;4164352;28;20243;-87
2022/09/24 10:40:30;;;;;;;18.42;12.20;;;16.00;99.90;;;;;;4148275;28;20192;-91